Time;durP1;ratioP1;P1;durP2;ratioP2;P2;SDS_P1;SDS_P2;PMS_P1;PMS_P2;Temp;Humidity;BMP_temperature;BMP_pressure;BME280_temperature;BME280_humidity;BME280_pressure;Samples;Min_cycle;Max_cycle;Signal;HPM_P1;HPM_P2
2023/07/09 00:02:13;;;;;;;9.00;6.13;;;;;;;;;;6244623;28;20193;-66
2023/07/09 00:05:15;;;;;;;6.77;5.97;;;;;;;;;;6246234;28;20201;-66
2023/07/09 00:08:24;;;;;;;7.70;5.70;;;;;;;;;;6248833;28;20194;-66
2023/07/09 00:11:25;;;;;;;6.30;5.70;;;;;;;;;;6262106;28;20293;-66
2023/07/09 00:14:26;;;;;;;7.77;6.10;;;;;;;;;;6265615;28;20189;-66
2023/07/09 00:17:30;;;;;;;6.90;6.27;;;;;;;;;;6250964;28;20196;-66
2023/07/09 00:20:31;;;;;;;7.23;5.57;;;;;;;;;;6266946;28;20201;-66
2023/07/09 00:23:33;;;;;;;6.80;5.87;;;;;;;;;;6241994;28;20197;-66
2023/07/09 00:26:34;;;;;;;8.10;6.17;;;;;;;;;;6245335;28;20272;-66
2023/07/09 00:29:35;;;;;;;6.97;6.13;;;;;;;;;;6239830;28;20194;-66
2023/07/09 00:32:43;;;;;;;7.23;5.30;;;;;;;;;;6249606;28;20256;-66
2023/07/09 00:35:46;;;;;;;7.17;6.00;;;;;;;;;;6263249;28;20193;-66
2023/07/09 00:38:47;;;;;;;7.33;6.00;;;;;;;;;;6264842;28;20201;-66
2023/07/09 00:41:50;;;;;;;6.87;5.80;;;;;;;;;;6263867;28;20197;-66
2023/07/09 00:44:52;;;;;;;6.63;5.93;;;;;;;;;;6269667;28;20189;-66
2023/07/09 00:48:01;;;;;;;7.67;6.47;;;;;;;;;;6269848;28;20211;-66
2023/07/09 00:51:06;;;;;;;7.30;6.60;;;;;;;;;;6269971;28;20245;-66
2023/07/09 00:54:14;;;;;;;7.07;6.30;;;;;;;;;;6251929;28;20241;-66
2023/07/09 00:57:17;;;;;;;6.43;5.57;;;;;;;;;;6273530;28;20202;-66
2023/07/09 01:00:19;;;;;;;7.07;5.83;;;;;;;;;;6261647;28;20202;-66
2023/07/09 01:03:22;;;;;;;6.63;5.83;;;;;;;;;;6266865;28;20190;-66
2023/07/09 01:06:36;;;;;;;7.60;6.20;;;;;;;;;;6251922;28;20186;-66
2023/07/09 01:09:40;;;;;;;6.63;6.03;;;;;;;;;;6258878;28;20182;-66
2023/07/09 01:12:42;;;;;;;7.33;6.50;;;;;;;;;;6273743;28;20237;-66
2023/07/09 01:15:43;;;;;;;7.53;5.50;;;;;;;;;;6265246;28;20193;-66
2023/07/09 01:18:44;;;;;;;6.97;6.23;;;;;;;;;;6250895;28;20210;-66
2023/07/09 01:21:45;;;;;;;8.37;6.50;;;;;;;;;;6242351;28;20206;-66
2023/07/09 01:24:52;;;;;;;10.07;6.93;;;;;;;;;;6277643;28;20201;-66
2023/07/09 01:27:54;;;;;;;7.00;6.30;;;;;;;;;;6267154;28;20253;-66
2023/07/09 01:30:56;;;;;;;7.63;6.30;;;;;;;;;;6264688;28;20219;-66
2023/07/09 01:33:58;;;;;;;9.37;6.60;;;;;;;;;;6254867;28;20190;-66
2023/07/09 01:36:59;;;;;;;7.50;6.73;;;;;;;;;;6268663;28;20269;-66
2023/07/09 01:40:00;;;;;;;7.37;6.57;;;;;;;;;;6241430;28;20214;-66
2023/07/09 01:43:02;;;;;;;8.87;6.87;;;;;;;;;;6246401;28;20196;-66
2023/07/09 01:46:03;;;;;;;7.20;6.50;;;;;;;;;;6262655;28;20178;-66
2023/07/09 01:49:07;;;;;;;6.97;6.27;;;;;;;;;;6250977;28;20197;-66
2023/07/09 01:52:08;;;;;;;7.70;7.00;;;;;;;;;;6279359;28;20210;-66
2023/07/09 01:55:11;;;;;;;8.90;6.90;;;;;;;;;;6286964;28;20185;-66
2023/07/09 01:58:12;;;;;;;6.83;6.23;;;;;;;;;;6266613;28;20182;-66
2023/07/09 02:01:15;;;;;;;8.20;6.63;;;;;;;;;;6240220;28;20198;-66
2023/07/09 02:04:16;;;;;;;6.83;6.13;;;;;;;;;;6269363;28;20195;-66
2023/07/09 02:07:17;;;;;;;7.20;6.50;;;;;;;;;;6262162;28;20194;-66
2023/07/09 02:10:18;;;;;;;7.43;6.70;;;;;;;;;;6250108;28;20210;-66
2023/07/09 02:13:19;;;;;;;9.00;6.37;;;;;;;;;;6274016;28;20193;-66
2023/07/09 02:16:20;;;;;;;7.90;7.10;;;;;;;;;;6263118;28;20188;-66
2023/07/09 02:19:21;;;;;;;7.70;6.90;;;;;;;;;;6251663;28;20186;-66
2023/07/09 02:22:22;;;;;;;7.20;6.50;;;;;;;;;;6251632;28;20194;-66
2023/07/09 02:25:23;;;;;;;7.67;6.97;;;;;;;;;;6240279;28;20206;-66
2023/07/09 02:28:24;;;;;;;7.87;6.90;;;;;;;;;;6238254;28;20221;-66
2023/07/09 02:31:29;;;;;;;7.67;6.40;;;;;;;;;;6273744;28;20218;-66
2023/07/09 02:34:31;;;;;;;6.90;6.23;;;;;;;;;;6240715;28;20202;-66
2023/07/09 02:37:33;;;;;;;7.47;6.37;;;;;;;;;;6260971;28;20205;-66
2023/07/09 02:40:34;;;;;;;10.90;6.93;;;;;;;;;;6250009;28;20213;-66
2023/07/09 02:43:35;;;;;;;7.77;6.90;;;;;;;;;;6275873;28;20203;-66
2023/07/09 02:46:36;;;;;;;9.20;6.70;;;;;;;;;;6270969;28;20193;-66
2023/07/09 02:49:37;;;;;;;7.83;7.03;;;;;;;;;;6255609;28;20183;-66
2023/07/09 02:52:38;;;;;;;7.43;6.67;;;;;;;;;;6267270;28;20229;-66
2023/07/09 02:55:39;;;;;;;9.00;6.47;;;;;;;;;;6248999;28;20179;-66
2023/07/09 02:58:40;;;;;;;7.53;6.73;;;;;;;;;;6253457;28;20346;-66
2023/07/09 03:01:42;;;;;;;8.73;7.40;;;;;;;;;;6273984;28;20185;-66
2023/07/09 03:04:43;;;;;;;7.43;6.73;;;;;;;;;;6239331;28;20190;-66
2023/07/09 03:07:44;;;;;;;7.63;6.83;;;;;;;;;;6239259;28;20315;-66
2023/07/09 03:10:45;;;;;;;7.07;6.37;;;;;;;;;;6271635;28;20210;-66
2023/07/09 03:13:46;;;;;;;9.63;7.03;;;;;;;;;;6266453;28;20186;-66
2023/07/09 03:16:47;;;;;;;7.87;6.90;;;;;;;;;;6263855;28;20196;-66
2023/07/09 03:19:48;;;;;;;7.73;7.00;;;;;;;;;;6254043;28;20200;-66
2023/07/09 03:22:49;;;;;;;8.10;7.30;;;;;;;;;;6243853;28;20272;-66
2023/07/09 03:25:50;;;;;;;8.40;7.10;;;;;;;;;;6247530;28;20238;-66
2023/07/09 03:28:52;;;;;;;7.87;7.07;;;;;;;;;;6270870;28;20189;-66
2023/07/09 03:31:53;;;;;;;9.27;7.10;;;;;;;;;;6271625;28;20210;-66
2023/07/09 03:34:54;;;;;;;9.20;6.67;;;;;;;;;;6240456;28;20212;-66
2023/07/09 03:37:55;;;;;;;8.53;7.60;;;;;;;;;;6262249;28;20190;-66
2023/07/09 03:40:57;;;;;;;8.27;7.00;;;;;;;;;;6244540;28;20278;-66
2023/07/09 03:43:58;;;;;;;8.37;6.97;;;;;;;;;;6258714;28;20185;-66
2023/07/09 03:46:59;;;;;;;11.23;6.83;;;;;;;;;;6234105;28;20205;-66
2023/07/09 03:50:00;;;;;;;8.83;6.87;;;;;;;;;;6258624;28;20193;-66
2023/07/09 03:53:01;;;;;;;8.27;7.37;;;;;;;;;;6247702;28;20189;-67
2023/07/09 03:56:02;;;;;;;9.67;7.30;;;;;;;;;;6246306;28;20179;-66
2023/07/09 03:59:03;;;;;;;8.67;6.73;;;;;;;;;;6251171;28;20189;-66
2023/07/09 04:02:04;;;;;;;8.37;7.57;;;;;;;;;;6265991;28;20285;-66
2023/07/09 04:05:06;;;;;;;7.97;7.17;;;;;;;;;;6242348;28;20190;-66
2023/07/09 04:08:07;;;;;;;7.87;7.27;;;;;;;;;;6246686;28;20266;-65
2023/07/09 04:11:08;;;;;;;8.37;6.70;;;;;;;;;;6244889;28;20224;-66
2023/07/09 04:14:09;;;;;;;8.70;7.90;;;;;;;;;;6250982;28;20235;-66
2023/07/09 04:17:10;;;;;;;7.80;7.00;;;;;;;;;;6246939;28;20186;-66
2023/07/09 04:20:13;;;;;;;6.90;6.20;;;;;;;;;;6237526;28;20188;-65
2023/07/09 04:23:14;;;;;;;8.20;7.40;;;;;;;;;;6247496;28;20217;-65
2023/07/09 04:26:16;;;;;;;7.73;6.93;;;;;;;;;;6239668;28;20230;-65
2023/07/09 04:29:17;;;;;;;8.80;7.47;;;;;;;;;;6242753;28;20190;-65
2023/07/09 04:32:18;;;;;;;8.97;8.10;;;;;;;;;;6275851;28;20230;-66
2023/07/09 04:35:19;;;;;;;9.93;7.53;;;;;;;;;;6267057;28;20182;-66
2023/07/09 04:38:20;;;;;;;9.03;7.47;;;;;;;;;;6251087;28;20196;-66
2023/07/09 04:41:21;;;;;;;8.87;7.97;;;;;;;;;;6249078;28;20217;-65
2023/07/09 04:44:22;;;;;;;7.90;7.10;;;;;;;;;;6237390;28;20197;-66
2023/07/09 04:47:23;;;;;;;8.03;7.23;;;;;;;;;;6269102;28;20190;-66
2023/07/09 04:50:24;;;;;;;8.27;7.43;;;;;;;;;;6238027;28;20292;-66
2023/07/09 04:53:26;;;;;;;9.33;7.20;;;;;;;;;;6251545;28;20192;-68
2023/07/09 04:56:29;;;;;;;8.67;7.33;;;;;;;;;;6240400;28;20194;-67
2023/07/09 04:59:31;;;;;;;10.70;7.53;;;;;;;;;;6277205;28;20195;-67
2023/07/09 05:02:33;;;;;;;8.40;7.53;;;;;;;;;;6279145;28;20205;-66
2023/07/09 05:05:34;;;;;;;8.60;7.70;;;;;;;;;;6253922;28;20186;-66
2023/07/09 05:08:35;;;;;;;8.63;7.50;;;;;;;;;;6270725;28;20189;-66
2023/07/09 05:11:36;;;;;;;9.57;7.00;;;;;;;;;;6256585;28;20214;-66
2023/07/09 05:14:37;;;;;;;9.47;7.17;;;;;;;;;;6263033;28;20186;-66
2023/07/09 05:17:38;;;;;;;8.10;7.30;;;;;;;;;;6252080;28;20181;-66
2023/07/09 05:20:39;;;;;;;8.40;7.60;;;;;;;;;;6237002;28;20201;-66
2023/07/09 05:23:40;;;;;;;8.50;7.60;;;;;;;;;;6276797;28;20209;-66
2023/07/09 05:26:42;;;;;;;9.03;7.93;;;;;;;;;;6252111;28;20229;-66
2023/07/09 05:29:43;;;;;;;10.33;7.47;;;;;;;;;;6262446;28;20189;-66
2023/07/09 05:32:44;;;;;;;8.23;7.43;;;;;;;;;;6247421;28;20229;-67
2023/07/09 05:35:45;;;;;;;8.00;7.20;;;;;;;;;;6257883;28;20196;-66
2023/07/09 05:38:47;;;;;;;7.73;7.00;;;;;;;;;;6248892;28;20198;-66
2023/07/09 05:41:48;;;;;;;8.00;7.13;;;;;;;;;;6243012;28;20204;-67
2023/07/09 05:44:49;;;;;;;8.60;7.70;;;;;;;;;;6273169;28;20221;-66
2023/07/09 05:47:50;;;;;;;8.33;7.53;;;;;;;;;;6250263;28;20228;-65
2023/07/09 05:50:53;;;;;;;9.23;8.33;;;;;;;;;;6246142;28;20214;-65
2023/07/09 05:53:54;;;;;;;8.70;7.80;;;;;;;;;;6258653;28;20190;-65
2023/07/09 05:56:55;;;;;;;8.20;7.40;;;;;;;;;;6243991;28;20193;-67
2023/07/09 05:59:56;;;;;;;8.37;7.57;;;;;;;;;;6247847;28;20193;-66
2023/07/09 06:02:57;;;;;;;9.17;7.33;;;;;;;;;;6250123;28;20198;-67
2023/07/09 06:05:59;;;;;;;9.17;7.47;;;;;;;;;;6246747;28;20257;-67
2023/07/09 06:09:00;;;;;;;8.30;7.50;;;;;;;;;;6256054;28;20202;-65
2023/07/09 06:12:02;;;;;;;7.73;6.90;;;;;;;;;;6254302;28;20275;-66
2023/07/09 06:15:03;;;;;;;8.80;7.97;;;;;;;;;;6266067;28;20201;-68
2023/07/09 06:18:05;;;;;;;8.17;7.37;;;;;;;;;;6264311;28;20254;-70
2023/07/09 06:21:07;;;;;;;8.87;7.90;;;;;;;;;;6261404;28;20201;-68
2023/07/09 06:24:08;;;;;;;8.20;7.40;;;;;;;;;;6275440;28;20217;-69
2023/07/09 06:27:10;;;;;;;9.57;7.77;;;;;;;;;;6257078;28;20241;-64
2023/07/09 06:30:11;;;;;;;9.13;7.57;;;;;;;;;;6256378;28;20201;-64
2023/07/09 06:33:13;;;;;;;8.83;7.97;;;;;;;;;;6262653;28;20182;-64
2023/07/09 06:36:14;;;;;;;8.23;7.27;;;;;;;;;;6267407;28;20189;-64
2023/07/09 06:39:16;;;;;;;9.70;8.00;;;;;;;;;;6242577;28;20235;-64
2023/07/09 06:42:17;;;;;;;8.70;7.57;;;;;;;;;;6242608;28;20198;-64
2023/07/09 06:45:18;;;;;;;7.77;6.97;;;;;;;;;;6247833;28;20242;-64
2023/07/09 06:48:19;;;;;;;8.27;7.43;;;;;;;;;;6246484;28;20193;-63
2023/07/09 06:51:20;;;;;;;8.43;7.63;;;;;;;;;;6246112;28;20296;-63
2023/07/09 06:54:21;;;;;;;9.60;7.57;;;;;;;;;;6247650;28;20277;-65
2023/07/09 06:57:23;;;;;;;9.93;8.83;;;;;;;;;;6260636;28;20211;-64
2023/07/09 07:00:24;;;;;;;7.90;7.10;;;;;;;;;;6258284;28;20185;-63
2023/07/09 07:03:25;;;;;;;8.63;7.83;;;;;;;;;;6245127;28;20220;-64
2023/07/09 07:06:26;;;;;;;9.67;7.67;;;;;;;;;;6252709;28;20192;-66
2023/07/09 07:09:27;;;;;;;8.93;8.03;;;;;;;;;;6247442;28;20189;-66
2023/07/09 07:12:29;;;;;;;8.60;7.13;;;;;;;;;;6235657;28;20207;-63
2023/07/09 07:15:30;;;;;;;8.80;8.00;;;;;;;;;;6239603;28;20300;-66
2023/07/09 07:18:31;;;;;;;7.90;7.20;;;;;;;;;;6259685;28;20216;-65
2023/07/09 07:21:32;;;;;;;8.97;8.10;;;;;;;;;;6258072;28;20186;-66
2023/07/09 07:24:33;;;;;;;8.20;7.37;;;;;;;;;;6243651;28;20182;-65
2023/07/09 07:27:34;;;;;;;8.97;8.07;;;;;;;;;;6268553;28;20228;-69
2023/07/09 07:30:35;;;;;;;8.27;7.47;;;;;;;;;;6241666;28;20348;-69
2023/07/09 07:33:38;;;;;;;9.07;8.00;;;;;;;;;;6250049;28;20183;-65
2023/07/09 07:36:39;;;;;;;7.87;7.23;;;;;;;;;;6258341;28;20186;-66
2023/07/09 07:40:00;;;;;;;8.87;8.07;;;;;;;;;;6258520;28;20233;-65
2023/07/09 07:43:01;;;;;;;7.80;7.10;;;;;;;;;;6258823;28;20197;-65
2023/07/09 07:46:02;;;;;;;8.70;7.83;;;;;;;;;;6239942;28;20185;-67
2023/07/09 07:49:03;;;;;;;9.43;7.67;;;;;;;;;;6246964;28;20724;-64
2023/07/09 07:52:04;;;;;;;8.97;8.07;;;;;;;;;;6240898;28;20220;-64
2023/07/09 07:55:09;;;;;;;9.67;8.20;;;;;;;;;;6255136;28;20205;-64
2023/07/09 07:58:12;;;;;;;8.63;7.73;;;;;;;;;;6259674;28;20261;-64
2023/07/09 08:01:13;;;;;;;9.07;8.17;;;;;;;;;;6256285;28;20193;-64
2023/07/09 08:04:14;;;;;;;9.13;8.23;;;;;;;;;;6266139;28;20192;-64
2023/07/09 08:07:15;;;;;;;9.00;8.10;;;;;;;;;;6244222;28;20285;-64
2023/07/09 08:10:16;;;;;;;8.80;7.70;;;;;;;;;;6246593;28;20277;-64
2023/07/09 08:13:17;;;;;;;8.57;7.77;;;;;;;;;;6250482;28;20198;-63
2023/07/09 08:16:18;;;;;;;10.17;8.47;;;;;;;;;;6256403;28;20249;-66
2023/07/09 08:19:20;;;;;;;8.90;7.93;;;;;;;;;;6250096;28;20190;-66
2023/07/09 08:22:21;;;;;;;8.90;8.00;;;;;;;;;;6242645;28;20225;-65
2023/07/09 08:25:22;;;;;;;9.47;8.00;;;;;;;;;;6247987;28;20225;-65
2023/07/09 08:28:24;;;;;;;9.40;8.50;;;;;;;;;;6244352;28;20335;-65
2023/07/09 08:31:25;;;;;;;9.30;8.40;;;;;;;;;;6267038;28;20206;-65
2023/07/09 08:34:26;;;;;;;9.17;8.27;;;;;;;;;;6254102;28;20186;-66
2023/07/09 08:37:27;;;;;;;9.13;8.23;;;;;;;;;;6268917;28;20195;-64
2023/07/09 08:40:28;;;;;;;9.23;8.20;;;;;;;;;;6273588;28;20237;-64
2023/07/09 08:43:29;;;;;;;8.40;7.60;;;;;;;;;;6251896;28;20194;-63
2023/07/09 08:46:39;;;;;;;8.93;8.00;;;;;;;;;;6289237;28;20183;-64
2023/07/09 08:49:40;;;;;;;9.07;8.17;;;;;;;;;;6257420;28;20231;-65
2023/07/09 08:52:42;;;;;;;9.00;8.20;;;;;;;;;;6268034;28;20206;-64
2023/07/09 08:55:43;;;;;;;8.93;8.13;;;;;;;;;;6259976;28;20190;-64
2023/07/09 08:58:47;;;;;;;7.83;7.13;;;;;;;;;;6265801;28;20190;-64
2023/07/09 09:01:59;;;;;;;8.63;7.83;;;;;;;;;;6260538;28;20193;-64
2023/07/09 09:05:00;;;;;;;8.20;7.40;;;;;;;;;;6255484;28;20206;-63
2023/07/09 09:08:35;;;;;;;10.23;7.33;;;;;;;;;;6267701;28;20197;-65
2023/07/09 09:11:44;;;;;;;7.17;6.47;;;;;;;;;;6260448;28;20210;-64
2023/07/09 09:14:50;;;;;;;7.23;6.40;;;;;;;;;;6264404;28;20191;-62
2023/07/09 09:17:53;;;;;;;7.30;6.60;;;;;;;;;;6263379;28;20194;-63
2023/07/09 09:21:13;;;;;;;7.67;6.67;;;;;;;;;;6255972;28;20199;-63
2023/07/09 09:24:16;;;;;;;7.70;6.77;;;;;;;;;;6252503;28;20191;-63
2023/07/09 09:27:17;;;;;;;8.43;6.87;;;;;;;;;;6259461;28;20245;-63
2023/07/09 09:30:20;;;;;;;7.70;6.53;;;;;;;;;;6274330;28;20189;-63
2023/07/09 09:33:21;;;;;;;7.90;7.00;;;;;;;;;;6262149;28;20182;-63
2023/07/09 09:36:24;;;;;;;8.77;7.87;;;;;;;;;;6252578;28;20245;-63
2023/07/09 09:39:25;;;;;;;9.47;7.77;;;;;;;;;;6258767;28;20204;-63
2023/07/09 09:42:26;;;;;;;8.83;7.20;;;;;;;;;;6260492;28;20269;-63
2023/07/09 09:45:34;;;;;;;8.57;7.40;;;;;;;;;;6269027;28;20247;-63
2023/07/09 09:48:38;;;;;;;8.03;7.33;;;;;;;;;;6262733;28;20194;-64
2023/07/09 09:51:42;;;;;;;8.67;7.10;;;;;;;;;;6268685;28;20194;-64
2023/07/09 09:54:48;;;;;;;7.77;7.07;;;;;;;;;;6273115;28;20186;-64
2023/07/09 09:57:50;;;;;;;8.40;7.60;;;;;;;;;;6270503;28;20207;-64
2023/07/09 10:00:52;;;;;;;7.87;7.17;;;;;;;;;;6247933;28;20193;-63
2023/07/09 10:03:56;;;;;;;8.00;7.30;;;;;;;;;;6250538;28;20198;-64
2023/07/09 10:07:00;;;;;;;7.83;7.13;;;;;;;;;;6267253;28;20190;-64
2023/07/09 10:10:03;;;;;;;8.77;6.80;;;;;;;;;;6267085;28;20222;-64
2023/07/09 10:13:23;;;;;;;10.30;7.80;;;;;;;;;;6255158;28;20309;-66
2023/07/09 10:16:36;;;;;;;13.50;12.40;;;;;;;;;;6262757;28;20209;-66
2023/07/09 10:19:44;;;;;;;16.73;15.33;;;;;;;;;;6262337;28;20251;-67
2023/07/09 10:23:17;;;;;;;9.83;8.83;;;;;;;;;;6266917;28;20187;-67
2023/07/09 10:26:26;;;;;;;11.53;10.43;;;;;;;;;;6239267;28;20236;-66
2023/07/09 10:29:42;;;;;;;10.70;9.70;;;;;;;;;;6259325;28;20179;-67
2023/07/09 10:33:02;;;;;;;8.60;7.80;;;;;;;;;;6263363;28;20214;-67
2023/07/09 10:36:13;;;;;;;25.40;15.27;;;;;;;;;;6272622;28;20185;-68
2023/07/09 10:39:17;;;;;;;18.60;14.93;;;;;;;;;;6267522;28;20182;-68
2023/07/09 10:42:30;;;;;;;217.50;195.03;;;;;;;;;;6283664;28;20236;-66
2023/07/09 10:45:35;;;;;;;78.17;69.83;;;;;;;;;;6261041;28;20212;-67
2023/07/09 10:48:38;;;;;;;17.10;14.60;;;;;;;;;;6278934;28;20183;-67
2023/07/09 10:51:41;;;;;;;10.00;9.10;;;;;;;;;;6261163;28;20209;-66
2023/07/09 10:54:46;;;;;;;9.73;8.93;;;;;;;;;;6264523;28;20198;-67
2023/07/09 10:57:53;;;;;;;8.97;8.17;;;;;;;;;;6259085;28;20203;-68
2023/07/09 11:00:55;;;;;;;8.80;8.00;;;;;;;;;;6269590;28;20261;-68
2023/07/09 11:04:00;;;;;;;8.33;7.47;;;;;;;;;;6273146;28;20196;-67
2023/07/09 11:07:02;;;;;;;8.53;7.73;;;;;;;;;;6265107;28;20198;-68
2023/07/09 11:10:07;;;;;;;8.23;7.43;;;;;;;;;;6257412;28;20215;-69
2023/07/09 11:13:12;;;;;;;8.50;7.80;;;;;;;;;;6267467;28;20214;-67
2023/07/09 11:16:15;;;;;;;9.10;8.20;;;;;;;;;;6257120;28;20190;-65
2023/07/09 11:19:18;;;;;;;9.23;8.27;;;;;;;;;;6258406;28;20194;-65
2023/07/09 11:22:48;;;;;;;8.87;8.07;;;;;;;;;;6264630;28;20187;-67
2023/07/09 11:26:12;;;;;;;7.83;6.93;;;;;;;;;;6282699;28;20245;-65
2023/07/09 11:29:18;;;;;;;7.47;6.60;;;;;;;;;;6260101;28;20191;-62
2023/07/09 11:32:22;;;;;;;7.60;6.90;;;;;;;;;;6268619;28;20285;-65
2023/07/09 11:35:24;;;;;;;17.20;13.93;;;;;;;;;;6255866;28;20205;-67
2023/07/09 11:38:25;;;;;;;13.53;12.20;;;;;;;;;;6284018;28;20178;-63
2023/07/09 11:41:33;;;;;;;9.97;8.93;;;;;;;;;;6267234;28;20182;-63
2023/07/09 11:44:34;;;;;;;8.43;7.40;;;;;;;;;;6261857;28;20193;-63
2023/07/09 11:47:38;;;;;;;8.27;7.40;;;;;;;;;;6242820;28;20280;-63
2023/07/09 11:50:42;;;;;;;8.70;7.33;;;;;;;;;;6259917;28;20297;-64
2023/07/09 11:53:46;;;;;;;7.83;7.13;;;;;;;;;;6272513;28;20186;-64
2023/07/09 11:56:57;;;;;;;8.10;7.37;;;;;;;;;;6255323;28;20264;-64
2023/07/09 12:00:00;;;;;;;7.17;6.47;;;;;;;;;;6262200;28;20248;-63
2023/07/09 12:03:01;;;;;;;9.93;6.83;;;24.40;69.30;;;;;;6259383;28;20282;-65
2023/07/09 12:06:04;;;;;;;8.93;6.30;;;28.30;58.10;;;;;;6259466;28;20203;-66
2023/07/09 12:09:05;;;;;;;6.57;5.97;;;28.50;57.90;;;;;;6266003;28;20194;-67
2023/07/09 12:12:17;;;;;;;7.23;6.53;;;;;;;;;;6255189;28;20198;-67
2023/07/09 12:15:23;;;;;;;6.10;5.60;;;;;;;;;;6270765;28;20213;-66
2023/07/09 12:18:24;;;;;;;5.80;5.30;;;;;;;;;;6288647;28;20265;-68
2023/07/09 12:21:26;;;;;;;6.37;5.87;;;29.00;56.90;;;;;;6253916;28;20212;-68
2023/07/09 12:24:28;;;;;;;6.20;5.57;;;;;;;;;;6260850;28;20193;-67
2023/07/09 12:27:37;;;;;;;6.53;5.83;;;30.80;51.20;;;;;;6260728;28;20242;-67
2023/07/09 12:30:39;;;;;;;6.67;6.07;;;;;;;;;;6249953;28;20201;-64
2023/07/09 12:33:49;;;;;;;6.40;5.90;;;31.50;52.30;;;;;;6245380;28;20195;-66
2023/07/09 12:36:53;;;;;;;6.03;5.53;;;32.20;46.00;;;;;;6265188;28;20186;-67
2023/07/09 12:39:53;;;;;;;10.10;5.70;;;32.40;47.90;;;;;;6267440;28;20214;-64
2023/07/09 12:42:57;;;;;;;6.07;5.47;;;32.60;46.00;;;;;;6268189;28;20194;-67
2023/07/09 12:46:02;;;;;;;6.30;5.70;;;;;;;;;;6278303;28;20198;-68
2023/07/09 12:49:05;;;;;;;6.47;5.87;;;;;;;;;;6253403;28;20186;-69
2023/07/09 12:52:13;;;;;;;7.73;6.10;;;;;;;;;;6263583;28;20232;-67
2023/07/09 12:55:25;;;;;;;6.50;5.97;;;;;;;;;;6262745;28;20236;-68
2023/07/09 12:58:32;;;;;;;6.37;5.77;;;33.50;45.70;;;;;;6262316;28;20183;-69
2023/07/09 13:01:35;;;;;;;6.33;5.73;;;33.50;45.40;;;;;;6296701;28;20217;-67
2023/07/09 13:04:39;;;;;;;6.27;5.67;;;33.70;43.50;;;;;;6249574;28;20213;-66
2023/07/09 13:07:41;;;;;;;6.10;5.50;;;;;;;;;;6265110;28;20186;-67
2023/07/09 13:10:42;;;;;;;6.53;5.23;;;;;;;;;;6264053;28;20202;-70
2023/07/09 13:13:57;;;;;;;6.30;5.70;;;34.20;43.70;;;;;;6271076;28;20190;-69
2023/07/09 13:17:09;;;;;;;5.83;5.33;;;34.30;42.80;;;;;;6274405;28;20197;-66
2023/07/09 13:20:09;;;;;;;5.83;5.37;;;34.50;43.00;;;;;;6258455;28;20266;-67
2023/07/09 13:23:19;;;;;;;5.60;5.10;;;34.60;44.70;;;;;;6246817;28;20181;-67
2023/07/09 13:26:19;;;;;;;7.07;5.60;;;34.70;42.90;;;;;;6250758;28;20226;-68
2023/07/09 13:29:21;;;;;;;6.17;5.57;;;35.00;43.90;;;;;;6269450;28;20204;-67
2023/07/09 13:32:23;;;;;;;6.67;5.97;;;35.10;42.50;;;;;;6266941;28;20207;-68
2023/07/09 13:35:23;;;;;;;9.67;6.30;;;35.30;41.30;;;;;;6272650;28;20182;-68
2023/07/09 13:38:25;;;;;;;8.17;6.17;;;35.30;43.00;;;;;;6267783;28;20236;-67
2023/07/09 13:41:25;;;;;;;6.80;6.07;;;35.50;43.50;;;;;;6256911;28;20178;-67
2023/07/09 13:44:28;;;;;;;8.67;5.90;;;35.70;43.70;;;;;;6268475;28;20188;-68
2023/07/09 13:47:29;;;;;;;5.73;5.23;;;35.70;41.30;;;;;;6268128;28;20186;-66
2023/07/09 13:50:30;;;;;;;6.10;5.60;;;35.10;41.70;;;;;;6252648;28;20217;-67
2023/07/09 13:53:31;;;;;;;7.07;5.53;;;34.70;42.80;;;;;;6261758;28;20201;-69
2023/07/09 13:56:32;;;;;;;5.90;5.40;;;34.50;44.00;;;;;;6274741;28;20213;-68
2023/07/09 13:59:33;;;;;;;6.03;5.53;;;34.40;43.90;;;;;;6253308;28;20182;-67
2023/07/09 14:02:33;;;;;;;6.43;5.63;;;34.40;43.90;;;;;;6253558;28;20190;-66
2023/07/09 14:05:34;;;;;;;6.77;6.17;;;34.20;40.30;;;;;;6269095;28;20193;-66
2023/07/09 14:08:35;;;;;;;6.73;5.73;;;34.10;42.40;;;;;;6279068;28;20197;-68
2023/07/09 14:11:51;;;;;;;6.20;5.70;;;34.00;44.10;;;;;;6254713;28;20259;-68
2023/07/09 14:14:52;;;;;;;7.73;7.00;;;34.00;45.20;;;;;;6263839;28;20183;-69
2023/07/09 14:17:54;;;;;;;5.70;5.27;;;33.90;46.10;;;;;;6266495;28;20248;-69
2023/07/09 14:20:56;;;;;;;5.70;5.20;;;33.90;44.80;;;;;;6241617;28;20198;-68
2023/07/09 14:23:57;;;;;;;6.13;5.60;;;33.80;45.70;;;;;;6270030;28;20182;-69
2023/07/09 14:26:58;;;;;;;6.30;5.70;;;33.60;46.00;;;;;;6236073;28;20241;-69
2023/07/09 14:29:59;;;;;;;6.27;5.40;;;33.60;46.30;;;;;;6268845;28;20189;-63
2023/07/09 14:33:00;;;;;;;6.13;5.53;;;33.60;42.90;;;;;;6241472;28;20213;-66
2023/07/09 14:36:00;;;;;;;6.20;5.70;;;33.40;41.50;;;;;;6242492;28;20182;-64
2023/07/09 14:39:01;;;;;;;6.00;5.53;;;33.40;45.00;;;;;;6255114;28;20182;-64
2023/07/09 14:42:03;;;;;;;6.73;6.13;;;33.40;45.70;;;;;;6275262;28;20260;-63
2023/07/09 14:45:16;;;;;;;6.37;5.87;;;33.40;46.60;;;;;;6255648;28;20192;-69
2023/07/09 14:48:20;;;;;;;6.70;6.10;;;33.10;44.80;;;;;;6248567;28;20214;-71
2023/07/09 14:51:20;;;;;;;6.50;5.80;;;32.60;46.60;;;;;;6266467;28;20234;-67
2023/07/09 14:54:27;;;;;;;6.63;6.03;;;32.20;48.10;;;;;;6238004;28;20183;-67
2023/07/09 14:57:29;;;;;;;6.70;6.00;;;31.80;48.40;;;;;;6262675;28;20200;-69
2023/07/09 15:00:30;;;;;;;6.10;5.60;;;31.40;48.90;;;;;;6243721;28;20178;-67
2023/07/09 15:03:31;;;;;;;7.77;6.57;;;31.10;50.40;;;;;;6270106;28;20196;-68
2023/07/09 15:06:31;;;;;;;10.97;6.90;;;30.90;51.50;;;;;;6257138;28;20193;-68
2023/07/09 15:09:37;;;;;;;11.67;7.20;;;30.80;52.80;;;;;;6266389;28;20200;-68
2023/07/09 15:12:37;;;;;;;9.43;6.53;;;30.80;52.70;;;;;;6268727;28;20491;-68
2023/07/09 15:15:38;;;;;;;12.67;8.03;;;30.70;52.90;;;;;;6245388;28;20194;-66
2023/07/09 15:18:39;;;;;;;10.07;7.50;;;30.60;53.30;;;;;;6241499;28;20194;-66
2023/07/09 15:21:39;;;;;;;10.63;7.37;;;30.50;54.30;;;;;;6251866;28;20240;-66
2023/07/09 15:24:40;;;;;;;15.03;8.80;;;30.50;54.10;;;;;;6264318;28;20185;-70
2023/07/09 15:27:42;;;;;;;12.03;7.97;;;30.50;54.50;;;;;;6261524;28;20237;-69
2023/07/09 15:30:43;;;;;;;11.30;7.17;;;30.40;54.40;;;;;;6239633;28;20206;-69
2023/07/09 15:33:43;;;;;;;8.23;6.70;;;30.20;54.50;;;;;;6251048;28;20236;-69
2023/07/09 15:36:48;;;;;;;8.70;6.93;;;30.20;55.10;;;;;;6252325;28;20229;-69
2023/07/09 15:39:49;;;;;;;8.73;6.77;;;;;;;;;;6252376;28;20178;-68
2023/07/09 15:42:55;;;;;;;6.40;5.90;;;30.30;54.90;;;;;;6245076;28;20320;-68
2023/07/09 15:45:57;;;;;;;6.83;6.23;;;30.60;53.40;;;;;;6271485;28;20269;-69
2023/07/09 15:48:58;;;;;;;6.20;5.70;;;30.60;52.70;;;;;;6264462;28;20190;-70
2023/07/09 15:51:59;;;;;;;6.20;5.60;;;30.50;54.30;;;;;;6246725;28;20352;-70
2023/07/09 15:55:00;;;;;;;6.23;5.63;;;30.50;50.20;;;;;;6242290;28;20193;-68
2023/07/09 15:58:00;;;;;;;6.53;5.47;;;30.40;52.90;;;;;;6262669;28;20190;-72
2023/07/09 16:01:01;;;;;;;6.10;5.47;;;30.30;52.10;;;;;;6253805;28;20177;-68
2023/07/09 16:04:08;;;;;;;8.67;6.23;;;30.30;52.70;;;;;;6238182;28;20190;-68
2023/07/09 16:07:09;;;;;;;6.30;5.70;;;30.20;52.80;;;;;;6260991;28;20373;-68
2023/07/09 16:10:10;;;;;;;5.97;5.53;;;;;;;;;;6243773;28;20189;-68
2023/07/09 16:13:22;;;;;;;6.73;5.83;;;;;;;;;;6244247;28;20212;-67
2023/07/09 16:16:24;;;;;;;6.43;5.93;;;;;;;;;;6256684;28;20175;-68
2023/07/09 16:19:26;;;;;;;6.13;5.63;;;;;;;;;;6243228;28;20321;-68
2023/07/09 16:22:27;;;;;;;6.33;5.80;;;;;;;;;;6259597;28;20190;-67
2023/07/09 16:25:35;;;;;;;6.23;5.73;;;;;;;;;;6242010;28;20244;-67
2023/07/09 16:28:36;;;;;;;6.33;5.83;;;;;;;;;;6267906;28;20244;-67
2023/07/09 16:31:37;;;;;;;8.50;5.73;;;30.10;52.90;;;;;;6248384;28;20210;-67
2023/07/09 16:34:38;;;;;;;6.07;5.57;;;29.70;52.90;;;;;;6239918;28;20217;-68
2023/07/09 16:37:39;;;;;;;6.90;5.83;;;29.70;53.20;;;;;;6266239;28;20217;-68
2023/07/09 16:40:40;;;;;;;6.87;5.93;;;29.70;52.80;;;;;;6265107;28;20201;-67
2023/07/09 16:43:41;;;;;;;7.13;6.23;;;29.60;53.00;;;;;;6256490;28;20186;-68
2023/07/09 16:46:41;;;;;;;7.23;6.23;;;29.50;53.50;;;;;;6246922;28;20190;-68
2023/07/09 16:49:42;;;;;;;7.00;6.40;;;29.50;54.60;;;;;;6239720;28;20194;-68
2023/07/09 16:52:44;;;;;;;6.80;5.93;;;29.40;54.30;;;;;;6255688;28;20221;-69
2023/07/09 16:55:45;;;;;;;9.00;5.97;;;;;;;;;;6266668;28;20190;-68
2023/07/09 16:58:46;;;;;;;6.37;5.87;;;;;;;;;;6260243;28;20185;-68
2023/07/09 17:01:50;;;;;;;6.90;6.20;;;;;;;;;;6282146;28;20198;-69
2023/07/09 17:04:51;;;;;;;6.70;6.10;;;;;;;;;;6252867;28;20213;-68
2023/07/09 17:07:52;;;;;;;6.97;6.27;;;;;;;;;;6267629;28;20222;-69
2023/07/09 17:10:53;;;;;;;7.20;6.53;;;;;;;;;;6265440;28;20217;-69
2023/07/09 17:13:54;;;;;;;8.60;6.83;;;;;;;;;;6252831;28;20224;-68
2023/07/09 17:16:55;;;;;;;6.77;6.17;;;;;;;;;;6240221;28;20209;-70
2023/07/09 17:19:56;;;;;;;6.63;5.90;;;28.70;55.40;;;;;;6246338;28;20194;-69
2023/07/09 17:22:58;;;;;;;6.73;5.97;;;;;;;;;;6248412;28;20186;-68
2023/07/09 17:26:00;;;;;;;6.97;6.00;;;;;;;;;;6257540;28;20238;-67
2023/07/09 17:29:01;;;;;;;7.03;6.33;;;;;;;;;;6252044;28;20201;-68
2023/07/09 17:32:02;;;;;;;7.20;6.50;;;;;;;;;;6253214;28;20214;-68
2023/07/09 17:35:03;;;;;;;7.83;6.73;;;;;;;;;;6247058;28;20183;-68
2023/07/09 17:38:05;;;;;;;6.73;6.13;;;;;;;;;;6251531;28;20194;-68
2023/07/09 17:41:06;;;;;;;8.90;6.07;;;;;;;;;;6259415;28;20218;-68